Historyczne dane pomiarowe

Dodano dane terminowe – wersja testowa.

Dane z okresu 1951-2019

Wersja bazy: 1.34 [2019-03-16, lista zmian], aktualizacja planowana na 2019-04-15

Dane meteo z obszaru Polski uzyskane na podstawie danych udostępnionych przez Instytut Meteorologii i Gospodarki Wodnej – Państwowy Instytut Badawczy.

 

Wybierz Datę:    

       

TemperaturaWilgotnośćZachmurzenieWiatrCiśnienieWidzialnośćZjawiska
 Data    tng td wb rh cc ccl cl cm ch dir g1 g2 mslp ppp      
1994-07-08 00:00:00 15.4--- 8.8 11.865wxwxwxwx1wx--1010.0 997.1 0.0---wx
1994-07-08 01:00:00 13.6--- 9.2 11.275wxwxwx1wx--1009.7 996.7----wx
1994-07-08 02:00:00 12.5--- 7.8 10.073wxwxwx1wx--1009.7 996.7----wx
1994-07-08 03:00:00 14.0--- 10.4 12.079wxwxwxwx2wx--1009.7 996.7----wx
1994-07-08 04:00:00 14.8--- 12.8 13.688wxwxwxwx3wx--1009.6 996.7----wx
1994-07-08 05:00:00 15.0--- 14.2 14.595wxwxwx4wx--1009.6 996.7----wxw1
1994-07-08 06:00:00 14.9--- 14.2 14.596wxwxwx5wx--1009.6 996.7 3.8---wx
1994-07-08 07:00:00 14.4--- 13.9 14.197wxwxwxwx4wx--1009.4 996.4----wxw1
1994-07-08 08:00:00 14.6--- 13.9 14.296wxwxwx3wx--1009.9 996.9----wxw1
1994-07-08 09:00:00 15.7--- 13.9 14.689wxwxwx5wx10-1010.2 997.3----wxw1
1994-07-08 10:00:00 15.8--- 13.3 14.385wxwxwx5wx--1010.2 997.3----wx
1994-07-08 11:00:00 16.0--- 12.6 14.080wxwxwx6wx11-1010.5 997.6----wx
1994-07-08 12:00:00 15.3--- 12.4 13.683wxwxwxwx5wx--1010.7 997.8 5.0---wxw1
1994-07-08 13:00:00 16.8--- 12.6 14.376wxwxwx4wx--1010.2 997.3----wx
1994-07-08 14:00:00 14.4--- 12.5 13.388wxwxwx5wx--1010.3 997.3----wx
1994-07-08 15:00:00 14.9--- 13.0 13.889wxwxwx4wx--1010.2 997.3----wxw1
1994-07-08 16:00:00 13.9--- 12.7 13.293wxwxwx3wx--1010.1 997.1----wxw1
1994-07-08 17:00:00 13.9--- 12.7 13.293wxwxwx3wx--1009.5 996.5----wxw1
1994-07-08 18:00:00 13.8--- 12.6 13.192wxwxwx2wx--1009.0 996.0 1.4---wxw1
1994-07-08 19:00:00 13.5--- 12.5 12.993wxwxwx3wx--1008.3 995.3----wxw1
1994-07-08 20:00:00 13.2--- 12.5 12.896wxwxwx3wx--1007.9 994.9----wxw1
1994-07-08 21:00:00 13.3--- 12.8 13.097wxwxwx4wx--1007.6 994.6----wxw1
1994-07-08 22:00:00 13.4--- 12.9 13.197wxwxwx3wx--1007.7 994.7----wx
1994-07-08 23:00:00 13.1--- 12.8 12.998wxwxwx3wx--1007.7 994.7----wx

 

Źródłem pochodzenia danych jest Instytut Meteorologii i Gospodarki Wodnej – Państwowy Instytut Badawczy. Dane Instytutu Meteorologii i Gospodarki Wodnej – Państwowego Instytutu Badawczego zostały przetworzone.

Dane źródłowe można odnaleźć na stronie https://dane.imgw.pl